Time;durP1;ratioP1;P1;durP2;ratioP2;P2;SDS_P1;SDS_P2;PMS_P1;PMS_P2;Temp;Humidity;BMP_temperature;BMP_pressure;BME280_temperature;BME280_humidity;BME280_pressure;Samples;Min_cycle;Max_cycle;Signal;HPM_P1;HPM_P2
2021/11/21 00:00:42;;;;;;;13.20;9.20;;;6.10;99.90;;;;;;5070454;28;20531;-70
2021/11/21 00:03:09;;;;;;;13.13;8.43;;;6.10;99.90;;;;;;5070266;28;20452;-70
2021/11/21 00:05:40;;;;;;;14.93;8.40;;;6.10;99.90;;;;;;5070619;28;20483;-71
2021/11/21 00:08:07;;;;;;;13.60;8.70;;;6.10;99.90;;;;;;5070010;28;20434;-70
2021/11/21 00:10:34;;;;;;;12.17;8.47;;;6.10;99.90;;;;;;5070468;28;20979;-70
2021/11/21 00:13:01;;;;;;;13.60;9.93;;;6.20;99.90;;;;;;5069846;28;20924;-70
2021/11/21 00:15:28;;;;;;;12.53;8.30;;;6.30;99.90;;;;;;5070382;28;20981;-71
2021/11/21 00:17:56;;;;;;;12.27;9.10;;;6.30;99.90;;;;;;5070145;28;20528;-71
2021/11/21 00:20:23;;;;;;;10.27;7.67;;;6.20;99.90;;;;;;5070228;28;20536;-71
2021/11/21 00:22:50;;;;;;;12.13;8.80;;;6.30;99.90;;;;;;5070575;28;20528;-71
2021/11/21 00:25:17;;;;;;;14.40;9.17;;;6.50;99.90;;;;;;5070133;28;20457;-70
2021/11/21 00:27:44;;;;;;;11.97;9.13;;;6.40;99.90;;;;;;5070807;28;20475;-70
2021/11/21 00:30:11;;;;;;;13.40;9.23;;;6.50;99.90;;;;;;5069564;28;20449;-71
2021/11/21 00:32:38;;;;;;;12.03;8.30;;;6.10;99.90;;;;;;5070596;28;20464;-70
2021/11/21 00:35:07;;;;;;;12.00;8.53;;;6.30;99.90;;;;;;5069600;28;20485;-70
2021/11/21 00:37:34;;;;;;;13.10;8.93;;;6.40;99.90;;;;;;5084010;28;20464;-70
2021/11/21 00:40:01;;;;;;;13.30;8.67;;;6.50;99.90;;;;;;5089674;28;20444;-71
2021/11/21 00:42:28;;;;;;;10.27;8.70;;;6.30;99.90;;;;;;5090406;28;20944;-71
2021/11/21 00:44:55;;;;;;;12.47;9.00;;;6.40;99.90;;;;;;5089869;28;20459;-71
2021/11/21 00:47:22;;;;;;;10.57;8.00;;;6.30;99.90;;;;;;5090283;28;21079;-71
2021/11/21 00:49:48;;;;;;;12.80;8.63;;;6.30;99.90;;;;;;5090296;28;20527;-70
2021/11/21 00:52:17;;;;;;;13.13;9.03;;;6.30;99.90;;;;;;5090093;28;20490;-70
2021/11/21 00:54:51;;;;;;;12.77;8.40;;;6.30;99.90;;;;;;5092642;28;20502;-70
2021/11/21 00:57:18;;;;;;;11.93;8.80;;;6.20;99.90;;;;;;5093730;28;20463;-70
2021/11/21 00:59:45;;;;;;;10.63;7.47;;;6.20;99.90;;;;;;5093993;28;20451;-70
2021/11/21 01:02:12;;;;;;;9.67;7.53;;;6.20;99.90;;;;;;5093467;28;20531;-72
2021/11/21 01:04:41;;;;;;;9.53;6.40;;;6.00;99.90;;;;;;5093990;28;20565;-71
2021/11/21 01:07:09;;;;;;;9.30;7.20;;;6.10;99.90;;;;;;5093384;28;20453;-71
2021/11/21 01:09:38;;;;;;;9.17;6.67;;;6.30;99.90;;;;;;5093444;28;20536;-71
2021/11/21 01:12:06;;;;;;;9.57;7.47;;;6.30;99.90;;;;;;5091814;28;20445;-70
2021/11/21 01:14:33;;;;;;;9.63;6.40;;;6.00;99.90;;;;;;5073265;28;20484;-70
2021/11/21 01:17:00;;;;;;;9.50;7.30;;;6.40;99.90;;;;;;5072739;28;20451;-71
2021/11/21 01:19:27;;;;;;;10.03;6.73;;;6.50;99.90;;;;;;5073275;28;20449;-71
2021/11/21 01:21:54;;;;;;;12.57;8.80;;;6.30;87.50;;;;;;5073348;28;20532;-71
2021/11/21 01:24:21;;;;;;;9.97;6.90;;;6.20;99.90;;;;;;5073585;28;20457;-70
2021/11/21 01:26:50;;;;;;;5.90;5.30;;;6.00;99.90;;;;;;5073392;28;20532;-71
2021/11/21 01:29:17;;;;;;;7.70;5.43;;;5.90;99.90;;;;;;5072506;28;20452;-71
2021/11/21 01:31:47;;;;;;;7.20;5.00;;;5.70;99.90;;;;;;5073407;28;20537;-71
2021/11/21 01:34:14;;;;;;;7.83;6.47;;;5.60;99.90;;;;;;5072560;28;20859;-71
2021/11/21 01:36:41;;;;;;;7.47;5.30;;;6.00;99.90;;;;;;5059651;28;20446;-71
2021/11/21 01:39:08;;;;;;;6.80;4.83;;;5.70;99.90;;;;;;5071926;28;20449;-71
2021/11/21 01:41:36;;;;;;;5.67;4.87;;;6.00;99.90;;;;;;5072911;28;20960;-70
2021/11/21 01:44:05;;;;;;;7.00;5.03;;;5.90;99.90;;;;;;5072403;28;20468;-70
2021/11/21 01:46:34;;;;;;;7.53;5.27;;;6.00;99.90;;;;;;5073107;28;20452;-70
2021/11/21 01:49:01;;;;;;;7.73;5.13;;;6.00;99.90;;;;;;5071878;28;20448;-70
2021/11/21 01:51:28;;;;;;;7.00;5.00;;;5.90;99.90;;;;;;5072671;28;20540;-70
2021/11/21 01:53:57;;;;;;;7.17;4.60;;;6.10;99.90;;;;;;5072584;28;20480;-71
2021/11/21 01:56:26;;;;;;;7.60;6.23;;;6.10;99.90;;;;;;5072572;28;20449;-70
2021/11/21 01:58:53;;;;;;;8.30;5.47;;;6.20;99.90;;;;;;5088628;28;20452;-70
2021/11/21 02:01:22;;;;;;;7.57;5.53;;;6.20;98.70;;;;;;5092907;28;20498;-70
2021/11/21 02:03:49;;;;;;;8.57;4.93;;;6.30;94.90;;;;;;5092678;28;20452;-71
2021/11/21 02:06:16;;;;;;;5.27;4.43;;;6.30;99.90;;;;;;5091617;28;20480;-71
2021/11/21 02:08:43;;;;;;;8.20;5.47;;;5.90;99.90;;;;;;5091959;28;20907;-70
2021/11/21 02:11:10;;;;;;;8.20;5.47;;;5.80;99.90;;;;;;5092041;28;20449;-71
2021/11/21 02:13:37;;;;;;;7.13;5.53;;;5.80;99.90;;;;;;5078580;28;20445;-70
2021/11/21 02:16:05;;;;;;;5.97;5.03;;;5.80;99.90;;;;;;5071807;28;20507;-70
2021/11/21 02:18:33;;;;;;;5.90;5.20;;;5.80;99.90;;;;;;5072165;28;20442;-70
2021/11/21 02:21:01;;;;;;;7.60;5.00;;;6.20;99.90;;;;;;5071610;28;20470;-71
2021/11/21 02:23:28;;;;;;;6.17;5.30;;;6.20;99.90;;;;;;5071699;28;20956;-71
2021/11/21 02:25:55;;;;;;;5.67;5.17;;;6.10;60.50;;;;;;5072194;28;20479;-71
2021/11/21 02:28:22;;;;;;;6.07;4.87;;;5.90;99.90;;;;;;5072188;28;20459;-70
2021/11/21 02:30:50;;;;;;;7.60;5.53;;;5.60;99.90;;;;;;5071739;28;20449;-71
2021/11/21 02:33:20;;;;;;;5.70;4.40;;;5.50;99.90;;;;;;5071595;28;20460;-70
2021/11/21 02:35:49;;;;;;;9.70;5.47;;;5.40;99.90;;;;;;5072209;28;20488;-71
2021/11/21 02:38:20;;;;;;;7.00;4.60;;;5.20;99.90;;;;;;5071554;28;20457;-70
2021/11/21 02:40:48;;;;;;;6.53;4.90;;;5.10;99.90;;;;;;5071363;28;20929;-71
2021/11/21 02:43:15;;;;;;;6.20;4.40;;;5.20;99.90;;;;;;5071129;28;20933;-70
2021/11/21 02:45:42;;;;;;;6.30;5.07;;;5.10;99.90;;;;;;5071675;28;20454;-71
2021/11/21 02:48:09;;;;;;;6.33;4.10;;;5.30;99.90;;;;;;5071289;28;20449;-71
2021/11/21 02:50:35;;;;;;;6.50;4.67;;;5.20;99.90;;;;;;5071327;28;20853;-71
2021/11/21 02:53:03;;;;;;;6.37;4.93;;;5.30;99.90;;;;;;5071221;28;20532;-71
2021/11/21 02:55:33;;;;;;;6.07;4.87;;;5.10;99.90;;;;;;5071392;28;21107;-71
2021/11/21 02:58:01;;;;;;;6.93;5.17;;;5.30;99.90;;;;;;5071175;28;20463;-72
2021/11/21 03:00:28;;;;;;;7.10;5.70;;;5.60;99.90;;;;;;5071138;28;20441;-70
2021/11/21 03:02:56;;;;;;;6.30;5.20;;;6.00;99.90;;;;;;5070936;28;20487;-70
2021/11/21 03:05:23;;;;;;;5.27;4.50;;;5.80;99.90;;;;;;5071273;28;20489;-70
2021/11/21 03:07:50;;;;;;;6.03;5.00;;;5.60;99.90;;;;;;5071343;28;20452;-71
2021/11/21 03:10:19;;;;;;;5.47;3.67;;;5.40;99.90;;;;;;5070432;28;20536;-70
2021/11/21 03:12:49;;;;;;;5.30;3.97;;;5.50;99.90;;;;;;5071332;28;20452;-71
2021/11/21 03:15:17;;;;;;;6.70;4.83;;;5.30;99.90;;;;;;5070496;28;20495;-70
2021/11/21 03:17:44;;;;;;;6.10;4.37;;;5.30;99.90;;;;;;5071254;28;20446;-71
2021/11/21 03:20:12;;;;;;;6.13;4.50;;;5.60;99.90;;;;;;5070062;28;20472;-70
2021/11/21 03:22:40;;;;;;;8.30;4.73;;;5.40;99.90;;;;;;5071038;28;20441;-70
2021/11/21 03:25:08;;;;;;;7.33;5.40;;;5.10;99.90;;;;;;5070456;28;20451;-70
2021/11/21 03:27:35;;;;;;;6.80;4.67;;;5.00;99.90;;;;;;5070924;28;20449;-70
2021/11/21 03:30:05;;;;;;;7.63;4.70;;;5.10;99.90;;;;;;5069816;28;20953;-71
2021/11/21 03:32:32;;;;;;;5.27;4.37;;;5.10;99.90;;;;;;5070509;28;20449;-70
2021/11/21 03:34:59;;;;;;;5.50;4.50;;;5.30;99.90;;;;;;5070416;28;20578;-71
2021/11/21 03:37:26;;;;;;;5.70;4.40;;;5.10;99.90;;;;;;5071047;28;20456;-70
2021/11/21 03:39:53;;;;;;;7.13;4.77;;;5.00;99.90;;;;;;5070388;28;20445;-71
2021/11/21 03:42:20;;;;;;;6.80;5.50;;;5.30;99.90;;;;;;5069921;28;20960;-70
2021/11/21 03:44:47;;;;;;;6.70;5.07;;;5.30;99.90;;;;;;5070576;28;21017;-71
2021/11/21 03:47:15;;;;;;;6.93;4.63;;;5.30;99.90;;;;;;5070462;28;20532;-70
2021/11/21 03:49:42;;;;;;;5.70;4.17;;;5.20;99.90;;;;;;5070182;28;20449;-71
2021/11/21 03:52:09;;;;;;;8.00;4.90;;;5.10;99.90;;;;;;5069929;28;20446;-71
2021/11/21 03:54:36;;;;;;;5.80;4.10;;;5.30;99.90;;;;;;5070519;28;20456;-70
2021/11/21 03:57:04;;;;;;;5.83;4.80;;;5.10;99.90;;;;;;5070248;28;20456;-70
2021/11/21 03:59:31;;;;;;;7.10;4.53;;;5.30;99.90;;;;;;5070439;28;20487;-70
2021/11/21 04:01:59;;;;;;;7.30;5.33;;;5.40;99.90;;;;;;5070093;28;20449;-71
2021/11/21 04:04:27;;;;;;;7.90;4.77;;;5.40;99.90;;;;;;5070476;28;20843;-70
2021/11/21 04:06:54;;;;;;;6.50;4.27;;;5.40;99.90;;;;;;5070697;28;20532;-71
2021/11/21 04:09:22;;;;;;;7.20;4.90;;;5.40;99.90;;;;;;5070378;28;20477;-70
2021/11/21 04:11:49;;;;;;;5.13;4.13;;;5.00;99.90;;;;;;5070747;28;20451;-70
2021/11/21 04:14:16;;;;;;;5.50;4.20;;;5.00;99.90;;;;;;5070237;28;21135;-70
2021/11/21 04:16:44;;;;;;;5.70;4.33;;;5.10;99.90;;;;;;5070515;28;20481;-70
2021/11/21 04:19:12;;;;;;;5.30;4.60;;;5.00;99.90;;;;;;5069814;28;20441;-70
2021/11/21 04:21:40;;;;;;;5.50;4.13;;;4.70;99.90;;;;;;5070676;28;20449;-70
2021/11/21 04:24:12;;;;;;;5.77;4.40;;;4.60;99.90;;;;;;5070201;28;20473;-70
2021/11/21 04:26:40;;;;;;;7.23;4.87;;;4.90;99.90;;;;;;5070472;28;20790;-71
2021/11/21 04:29:06;;;;;;;5.90;4.43;;;4.60;99.90;;;;;;5070800;28;20476;-70
2021/11/21 04:31:33;;;;;;;7.23;5.00;;;4.90;99.90;;;;;;5074444;28;20848;-71
2021/11/21 04:34:01;;;;;;;7.20;5.40;;;5.10;99.90;;;;;;5073771;28;20586;-71
2021/11/21 04:36:27;;;;;;;6.00;4.10;;;5.00;99.90;;;;;;5078477;28;20491;-71
2021/11/21 04:38:56;;;;;;;5.33;3.70;;;4.90;99.90;;;;;;5093932;28;20447;-71
2021/11/21 04:41:23;;;;;;;8.03;5.47;;;4.90;99.90;;;;;;5094523;28;20531;-71
2021/11/21 04:43:50;;;;;;;6.87;4.90;;;5.00;99.90;;;;;;5094486;28;20444;-70
2021/11/21 04:46:17;;;;;;;5.40;4.30;;;4.90;99.90;;;;;;5093868;28;20447;-70
2021/11/21 04:48:44;;;;;;;4.60;3.80;;;4.60;99.90;;;;;;5094013;28;20444;-71
2021/11/21 04:51:11;;;;;;;6.40;4.47;;;4.50;99.90;;;;;;5093667;28;20452;-70
2021/11/21 04:53:39;;;;;;;5.87;3.40;;;4.30;99.90;;;;;;5094006;28;20551;-70
2021/11/21 04:56:08;;;;;;;6.20;4.63;;;4.30;99.90;;;;;;5093571;28;20491;-70
2021/11/21 04:58:35;;;;;;;7.00;3.60;;;4.20;99.90;;;;;;5093870;28;20452;-71
2021/11/21 05:01:02;;;;;;;6.50;4.50;;;4.20;99.90;;;;;;5093101;28;20962;-70
2021/11/21 05:03:29;;;;;;;5.50;3.97;;;4.30;99.90;;;;;;5094085;28;20813;-70
2021/11/21 05:05:56;;;;;;;4.77;3.50;;;4.30;99.90;;;;;;5094011;28;20976;-71
2021/11/21 05:08:23;;;;;;;6.37;4.00;;;4.30;99.90;;;;;;5093650;28;20448;-71
2021/11/21 05:10:50;;;;;;;5.77;4.43;;;4.60;99.90;;;;;;5093812;28;20444;-70
2021/11/21 05:13:18;;;;;;;4.60;4.10;;;4.30;99.90;;;;;;5082253;28;21148;-71
2021/11/21 05:15:45;;;;;;;4.60;3.30;;;4.60;99.90;;;;;;5073418;28;20484;-70
2021/11/21 05:18:12;;;;;;;5.93;4.17;;;4.80;99.90;;;;;;5072685;28;20453;-70
2021/11/21 05:20:39;;;;;;;7.90;4.93;;;4.90;99.90;;;;;;5073096;28;20449;-70
2021/11/21 05:23:06;;;;;;;5.40;4.33;;;5.10;99.90;;;;;;5072856;28;20513;-71
2021/11/21 05:25:33;;;;;;;8.60;3.93;;;4.90;99.90;;;;;;5073524;28;20449;-70
2021/11/21 05:28:00;;;;;;;5.00;4.03;;;4.80;99.90;;;;;;5072538;28;20502;-70
2021/11/21 05:30:28;;;;;;;5.53;3.63;;;4.80;99.90;;;;;;5072922;28;20445;-70
2021/11/21 05:32:55;;;;;;;5.70;4.10;;;4.90;99.90;;;;;;5072986;28;20463;-70
2021/11/21 05:35:22;;;;;;;4.40;3.60;;;4.60;99.90;;;;;;5073562;28;20527;-70
2021/11/21 05:37:51;;;;;;;5.57;3.70;;;4.40;99.90;;;;;;5074604;28;20472;-70
2021/11/21 05:40:18;;;;;;;5.80;3.10;;;4.40;99.90;;;;;;5072545;28;20777;-70
2021/11/21 05:42:46;;;;;;;4.87;3.83;;;4.50;99.90;;;;;;5075221;28;20453;-70
2021/11/21 05:45:13;;;;;;;4.47;3.53;;;4.40;99.90;;;;;;5074146;28;20955;-69
2021/11/21 05:47:41;;;;;;;5.60;3.80;;;4.50;99.90;;;;;;5075048;28;20455;-71
2021/11/21 05:50:12;;;;;;;6.57;3.10;;;4.70;99.90;;;;;;5082519;28;20450;-71
2021/11/21 05:52:40;;;;;;;4.53;3.70;;;4.90;99.90;;;;;;5072963;28;20507;-70
2021/11/21 05:55:07;;;;;;;4.03;2.80;;;4.80;99.90;;;;;;5071661;28;20480;-72
2021/11/21 05:57:34;;;;;;;5.37;3.77;;;4.80;99.90;;;;;;5074278;28;20479;-70
2021/11/21 06:00:01;;;;;;;4.73;3.37;;;5.00;99.90;;;;;;5085126;28;20441;-70
2021/11/21 06:02:28;;;;;;;4.00;2.80;;;4.80;99.90;;;;;;5075050;28;20457;-70
2021/11/21 06:04:57;;;;;;;5.60;3.53;;;4.80;99.90;;;;;;5080523;28;20555;-70
2021/11/21 06:07:23;;;;;;;4.13;2.90;;;5.10;99.90;;;;;;5072415;28;20544;-70
2021/11/21 06:09:50;;;;;;;3.13;2.50;;;5.00;99.90;;;;;;5072225;28;20449;-70
2021/11/21 06:12:17;;;;;;;4.30;3.30;;;5.00;99.90;;;;;;5082381;28;20750;-70
2021/11/21 06:14:44;;;;;;;6.30;3.90;;;4.90;99.90;;;;;;5072171;28;20536;-71
2021/11/21 06:17:12;;;;;;;3.90;3.13;;;4.70;99.90;;;;;;5090306;28;20480;-70
2021/11/21 06:19:39;;;;;;;6.67;3.27;;;4.50;99.90;;;;;;5076035;28;20502;-70
2021/11/21 06:22:08;;;;;;;4.97;4.10;;;4.70;99.90;;;;;;5070856;28;20449;-70
2021/11/21 06:24:35;;;;;;;5.77;3.57;;;4.80;99.90;;;;;;5071544;28;20456;-70
2021/11/21 06:27:02;;;;;;;6.17;4.27;;;4.70;99.90;;;;;;5071771;28;20834;-70
2021/11/21 06:29:29;;;;;;;7.47;4.53;;;4.70;99.90;;;;;;5072620;28;20446;-70
2021/11/21 06:31:56;;;;;;;8.63;3.80;;;5.00;99.90;;;;;;5081285;28;20445;-70
2021/11/21 06:34:23;;;;;;;3.60;2.97;;;4.70;99.90;;;;;;5080386;28;20461;-70
2021/11/21 06:36:50;;;;;;;4.60;3.10;;;4.70;99.90;;;;;;5071799;28;20480;-70
2021/11/21 06:39:18;;;;;;;4.90;3.40;;;4.70;99.90;;;;;;5070714;28;20449;-72
2021/11/21 06:41:45;;;;;;;5.33;3.77;;;4.60;99.90;;;;;;5071895;28;20813;-72
2021/11/21 06:44:12;;;;;;;5.30;3.80;;;4.60;99.90;;;;;;5072229;28;20449;-73
2021/11/21 06:46:39;;;;;;;6.27;4.50;;;4.50;99.90;;;;;;5084121;28;20442;-71
2021/11/21 06:49:07;;;;;;;4.50;3.27;;;4.40;99.90;;;;;;5072323;28;20448;-70
2021/11/21 06:51:36;;;;;;;5.70;3.80;;;4.50;99.90;;;;;;5080512;28;20442;-70
2021/11/21 06:54:03;;;;;;;5.77;3.80;;;4.60;99.90;;;;;;5079710;28;20453;-70
2021/11/21 06:56:31;;;;;;;7.73;3.80;;;4.60;99.90;;;;;;5081034;28;20571;-70
2021/11/21 06:58:58;;;;;;;6.07;4.40;;;4.50;99.90;;;;;;5084729;28;20533;-71
2021/11/21 07:01:25;;;;;;;5.83;3.23;;;4.60;99.90;;;;;;5073361;28;20477;-71
2021/11/21 07:03:52;;;;;;;4.70;3.23;;;4.50;99.90;;;;;;5071120;28;20465;-71
2021/11/21 07:06:29;;;;;;;6.70;3.67;;;4.60;99.90;;;;;;5069876;28;20487;-70
2021/11/21 07:08:56;;;;;;;5.67;3.20;;;4.70;99.90;;;;;;5072736;28;20940;-71
2021/11/21 07:11:23;;;;;;;6.37;3.40;;;4.50;99.90;;;;;;5090113;28;20451;-70
2021/11/21 07:13:52;;;;;;;7.20;4.40;;;4.50;99.90;;;;;;5074487;28;20456;-71
2021/11/21 07:16:19;;;;;;;5.53;3.70;;;4.50;99.90;;;;;;5083053;28;21078;-70
2021/11/21 07:18:46;;;;;;;5.30;3.93;;;4.80;99.90;;;;;;5081285;28;20452;-71
2021/11/21 07:21:13;;;;;;;6.60;4.27;;;4.80;99.90;;;;;;5088583;28;20455;-71
2021/11/21 07:23:40;;;;;;;5.83;3.60;;;4.70;99.90;;;;;;5076905;28;20456;-71
2021/11/21 07:26:07;;;;;;;6.00;3.70;;;4.70;99.90;;;;;;5070793;28;20479;-71
2021/11/21 07:28:34;;;;;;;6.40;4.17;;;4.60;99.90;;;;;;5076895;28;20444;-71
2021/11/21 07:31:02;;;;;;;6.00;3.77;;;4.50;99.90;;;;;;5084315;28;20453;-71
2021/11/21 07:33:29;;;;;;;9.43;4.60;;;4.30;99.90;;;;;;5080213;28;20542;-71
2021/11/21 07:35:56;;;;;;;5.20;3.80;;;4.50;99.90;;;;;;5070909;28;20458;-71
2021/11/21 07:38:23;;;;;;;8.10;4.40;;;4.80;99.90;;;;;;5062296;28;20477;-71
2021/11/21 07:40:52;;;;;;;7.97;4.53;;;4.80;99.90;;;;;;5071019;28;20448;-70
2021/11/21 07:43:19;;;;;;;7.03;3.77;;;4.80;99.90;;;;;;5072494;28;20465;-72
2021/11/21 07:45:46;;;;;;;7.97;4.80;;;5.00;99.90;;;;;;5085306;28;20536;-72
2021/11/21 07:48:15;;;;;;;7.00;4.03;;;5.00;99.90;;;;;;5081319;28;20481;-72
2021/11/21 07:50:42;;;;;;;7.13;3.97;;;5.00;99.90;;;;;;5071010;28;20472;-72
2021/11/21 07:53:09;;;;;;;7.50;4.43;;;5.20;99.90;;;;;;5070193;28;20446;-71
2021/11/21 07:55:36;;;;;;;4.80;3.43;;;5.20;99.90;;;;;;5066153;28;20472;-72
2021/11/21 07:58:03;;;;;;;4.13;3.10;;;5.20;99.90;;;;;;5069571;28;20483;-71
2021/11/21 08:00:30;;;;;;;6.53;4.83;;;5.40;99.90;;;;;;5084872;28;20455;-72
2021/11/21 08:02:58;;;;;;;6.13;4.33;;;5.20;99.90;;;;;;5075798;28;20452;-72
2021/11/21 08:05:26;;;;;;;8.63;4.30;;;5.10;99.90;;;;;;5085085;28;20484;-72
2021/11/21 08:07:53;;;;;;;8.60;3.90;;;5.30;99.90;;;;;;5073935;28;20450;-71
2021/11/21 08:10:20;;;;;;;7.57;5.10;;;5.20;99.90;;;;;;5086079;28;20807;-72
2021/11/21 08:12:47;;;;;;;7.20;3.60;;;5.50;99.90;;;;;;5074891;28;20472;-72
2021/11/21 08:15:15;;;;;;;6.10;5.00;;;5.50;99.90;;;;;;5076499;28;20446;-72
2021/11/21 08:17:42;;;;;;;7.30;4.80;;;5.40;99.90;;;;;;5074850;28;20495;-72
2021/11/21 08:20:10;;;;;;;6.90;4.57;;;5.60;99.90;;;;;;5073121;28;20445;-72
2021/11/21 08:22:38;;;;;;;7.20;5.00;;;5.80;99.90;;;;;;5074302;28;20445;-72
2021/11/21 08:25:07;;;;;;;10.97;7.20;;;5.60;99.90;;;;;;5091763;28;20454;-72
2021/11/21 08:27:34;;;;;;;15.20;8.83;;;5.70;99.90;;;;;;5088462;28;20538;-72
2021/11/21 08:30:01;;;;;;;12.53;7.50;;;5.60;99.90;;;;;;5090896;28;20444;-72
2021/11/21 08:32:28;;;;;;;14.37;9.57;;;5.60;99.90;;;;;;5077675;28;20520;-72
2021/11/21 08:34:55;;;;;;;17.10;9.10;;;5.70;99.90;;;;;;5093062;28;20448;-72
2021/11/21 08:37:22;;;;;;;17.07;9.37;;;5.70;99.90;;;;;;5065458;28;20914;-72
2021/11/21 08:39:50;;;;;;;14.80;7.70;;;6.00;99.90;;;;;;5084534;28;20452;-72
2021/11/21 08:42:18;;;;;;;14.20;8.73;;;5.90;99.90;;;;;;5073858;28;20445;-72
2021/11/21 08:44:45;;;;;;;12.40;8.20;;;6.10;99.90;;;;;;5073967;28;20441;-72
2021/11/21 08:47:12;;;;;;;15.37;8.67;;;5.80;99.90;;;;;;5073351;28;20449;-72
2021/11/21 08:49:39;;;;;;;14.90;8.97;;;5.90;99.90;;;;;;5079799;28;20527;-72
2021/11/21 08:52:07;;;;;;;17.10;10.30;;;5.90;99.90;;;;;;5088399;28;20549;-72
2021/11/21 08:54:34;;;;;;;12.20;9.37;;;5.90;99.90;;;;;;5073713;28;20532;-72
2021/11/21 08:57:03;;;;;;;11.20;8.40;;;6.00;99.90;;;;;;5086782;28;20476;-72
2021/11/21 08:59:30;;;;;;;13.87;7.90;;;6.20;99.90;;;;;;5075728;28;20447;-73
2021/11/21 09:01:57;;;;;;;14.10;7.93;;;6.10;99.90;;;;;;5073305;28;20449;-72
2021/11/21 09:04:24;;;;;;;14.47;8.27;;;6.00;99.90;;;;;;5073072;28;20650;-72
2021/11/21 09:06:51;;;;;;;11.33;7.90;;;6.30;99.90;;;;;;5080834;28;20454;-72
2021/11/21 09:09:18;;;;;;;16.00;8.50;;;6.10;1.00;;;;;;5073864;28;20445;-72
2021/11/21 09:11:45;;;;;;;13.03;8.30;;;6.40;1.00;;;;;;5077882;28;20976;-72
2021/11/21 09:14:14;;;;;;;13.97;8.67;;;5.90;99.90;;;;;;5073607;28;20541;-72
2021/11/21 09:16:41;;;;;;;12.57;7.60;;;6.00;99.90;;;;;;5075479;28;20481;-72
2021/11/21 09:19:08;;;;;;;13.17;8.10;;;6.00;97.10;;;;;;5072324;28;20556;-72
2021/11/21 09:21:35;;;;;;;10.10;6.87;;;6.10;1.00;;;;;;5076439;28;20872;-72
2021/11/21 09:24:02;;;;;;;11.30;6.90;;;6.00;1.00;;;;;;5074943;28;20448;-72
2021/11/21 09:26:30;;;;;;;9.87;6.60;;;6.10;42.90;;;;;;5073481;28;20457;-72
2021/11/21 09:28:57;;;;;;;15.87;9.30;;;5.80;24.90;;;;;;5072605;28;20445;-72
2021/11/21 09:31:25;;;;;;;13.30;8.33;;;6.00;99.90;;;;;;5072893;28;20445;-72
2021/11/21 09:33:52;;;;;;;13.77;6.33;;;6.10;99.90;;;;;;5072920;28;20457;-72
2021/11/21 09:36:19;;;;;;;10.67;7.33;;;6.10;99.90;;;;;;5074208;28;20449;-72
2021/11/21 09:38:46;;;;;;;12.60;6.60;;;5.90;99.90;;;;;;5072269;28;20513;-71
2021/11/21 09:41:13;;;;;;;10.73;6.30;;;6.10;23.70;;;;;;5072660;28;20446;-71
2021/11/21 09:43:41;;;;;;;8.60;5.63;;;6.20;1.00;;;;;;5072839;28;20787;-72
2021/11/21 09:46:09;;;;;;;8.50;5.87;;;6.30;1.00;;;;;;5071978;28;20454;-71
2021/11/21 09:48:38;;;;;;;8.63;6.50;;;6.40;1.00;;;;;;5072029;28;20481;-71
2021/11/21 09:51:05;;;;;;;7.40;4.77;;;6.30;1.00;;;;;;5072020;28;20559;-69
2021/11/21 09:53:32;;;;;;;12.30;6.67;;;6.20;1.00;;;;;;5081600;28;20529;-69
2021/11/21 09:55:59;;;;;;;13.00;7.03;;;6.50;1.00;;;;;;5072793;28;20445;-69
2021/11/21 09:58:26;;;;;;;9.90;5.70;;;6.40;1.00;;;;;;5071953;28;20479;-69
2021/11/21 10:00:53;;;;;;;11.47;6.80;;;6.10;1.00;;;;;;5086071;28;20536;-69
2021/11/21 10:03:20;;;;;;;11.20;6.87;;;6.10;1.00;;;;;;5071336;28;20869;-69
2021/11/21 10:05:53;;;;;;;8.33;6.20;;;6.00;1.00;;;;;;5085149;28;20476;-69
2021/11/21 10:08:21;;;;;;;10.03;5.93;;;6.10;1.00;;;;;;5077283;28;20458;-69
2021/11/21 10:10:50;;;;;;;8.63;5.17;;;6.20;1.00;;;;;;5082755;28;20478;-69
2021/11/21 10:13:30;;;;;;;7.60;5.33;;;6.10;99.90;;;;;;5071712;28;20450;-69
2021/11/21 10:15:59;;;;;;;11.53;5.93;;;5.80;1.00;;;;;;5069842;28;20981;-69
2021/11/21 10:18:26;;;;;;;8.70;6.07;;;6.10;1.00;;;;;;5076983;28;20480;-70
2021/11/21 10:20:55;;;;;;;9.07;5.27;;;6.10;1.00;;;;;;5074132;28;20532;-69
2021/11/21 10:23:23;;;;;;;9.70;5.90;;;6.40;99.90;;;;;;5074873;28;20453;-69
2021/11/21 10:25:55;;;;;;;9.30;6.63;;;6.40;1.00;;;;;;5071130;28;20499;-69
2021/11/21 10:28:28;;;;;;;10.73;6.07;;;6.30;99.90;;;;;;5070354;28;20442;-69
2021/11/21 10:31:13;;;;;;;9.47;5.60;;;6.00;1.00;;;;;;5071602;28;20976;-70
2021/11/21 10:33:43;;;;;;;9.87;5.60;;;6.20;1.00;;;;;;5071130;28;20981;-70
2021/11/21 10:36:17;;;;;;;9.87;5.90;;;6.50;99.90;;;;;;5071851;28;20442;-70
2021/11/21 10:38:47;;;;;;;9.13;5.00;;;6.70;99.90;;;;;;5081294;28;20500;-70
2021/11/21 10:41:17;;;;;;;7.00;5.23;;;6.50;1.00;;;;;;5076955;28;20896;-69
2021/11/21 10:43:59;;;;;;;9.67;4.63;;;6.10;99.90;;;;;;5072092;28;20536;-69
2021/11/21 10:46:33;;;;;;;8.37;4.93;;;6.00;1.00;;;;;;5071088;28;20485;-70
2021/11/21 10:49:21;;;;;;;8.60;5.80;;;5.90;1.00;;;;;;5070927;28;20810;-69
2021/11/21 10:52:01;;;;;;;7.33;4.80;;;6.20;1.00;;;;;;5071028;28;20449;-69
2021/11/21 10:54:31;;;;;;;10.00;4.77;;;6.20;1.00;;;;;;5090244;28;20444;-71
2021/11/21 10:57:01;;;;;;;8.20;5.20;;;6.00;1.00;;;;;;5072455;28;20450;-69
2021/11/21 10:59:41;;;;;;;10.07;5.60;;;6.30;1.00;;;;;;5077308;28;20474;-69
2021/11/21 11:02:12;;;;;;;7.07;5.60;;;6.30;1.00;;;;;;5086774;28;20464;-70
2021/11/21 11:04:40;;;;;;;10.80;5.60;;;6.30;1.00;;;;;;5071253;28;20570;-69
2021/11/21 11:07:17;;;;;;;9.63;5.40;;;6.20;1.00;;;;;;5072385;28;20448;-68
2021/11/21 11:09:45;;;;;;;10.33;6.93;;;6.30;1.00;;;;;;5091429;28;20447;-69
2021/11/21 11:12:12;;;;;;;8.47;5.70;;;;;;;;;;5078517;28;21029;-69
2021/11/21 11:14:40;;;;;;;9.20;5.80;;;;;;;;;;5071135;28;20454;-69
2021/11/21 11:17:07;;;;;;;10.27;5.63;;;6.20;1.00;;;;;;5070210;28;20452;-69
2021/11/21 11:19:35;;;;;;;7.50;5.43;;;6.90;99.90;;;;;;5071107;28;20537;-69
2021/11/21 11:22:02;;;;;;;8.57;5.10;;;6.60;99.90;;;;;;5070133;28;20449;-69
2021/11/21 11:24:32;;;;;;;8.03;4.97;;;6.40;1.00;;;;;;5076239;28;20807;-69
2021/11/21 11:27:05;;;;;;;10.20;5.47;;;6.40;1.00;;;;;;5069457;28;20451;-70
2021/11/21 11:29:43;;;;;;;8.83;5.97;;;6.50;1.00;;;;;;5086240;28;20516;-69
2021/11/21 11:32:28;;;;;;;9.70;5.53;;;6.40;1.00;;;;;;5080659;28;20524;-69
2021/11/21 11:34:57;;;;;;;9.60;5.50;;;6.30;1.00;;;;;;5070956;28;20453;-70
2021/11/21 11:37:42;;;;;;;10.37;5.53;;;6.00;6.20;;;;;;5069861;28;20508;-69
2021/11/21 11:40:42;;;;;;;11.50;8.10;;;6.10;99.90;;;;;;5069703;28;20445;-70
2021/11/21 11:43:31;;;;;;;11.23;7.40;;;6.30;99.90;;;;;;5057015;28;20437;-69
2021/11/21 11:46:01;;;;;;;10.90;6.40;;;6.10;96.10;;;;;;5075351;28;20460;-69
2021/11/21 11:48:37;;;;;;;14.80;8.10;;;6.20;99.90;;;;;;5070644;28;20540;-69
2021/11/21 11:51:07;;;;;;;8.60;5.73;;;6.20;99.90;;;;;;5085162;28;20441;-69
2021/11/21 11:53:36;;;;;;;8.60;5.40;;;6.40;79.10;;;;;;5070682;28;20532;-69
2021/11/21 11:56:19;;;;;;;9.50;6.17;;;6.10;47.30;;;;;;5076481;28;20440;-69
2021/11/21 11:58:52;;;;;;;8.07;5.00;;;6.40;99.90;;;;;;5080467;28;20909;-69
2021/11/21 12:01:53;;;;;;;7.30;4.43;;;6.50;1.00;;;;;;5070040;28;20875;-69
2021/11/21 12:04:48;;;;;;;12.20;6.10;;;6.50;1.00;;;;;;5074260;28;20492;-69
2021/11/21 12:07:25;;;;;;;8.00;4.70;;;6.40;99.90;;;;;;5081034;28;20444;-69
2021/11/21 12:10:18;;;;;;;15.20;5.57;;;6.20;40.30;;;;;;5083386;28;20509;-70
2021/11/21 12:13:04;;;;;;;5.93;4.30;;;6.30;1.00;;;;;;5064048;28;20460;-69
2021/11/21 12:15:37;;;;;;;7.67;4.37;;;6.00;30.00;;;;;;5070624;28;20862;-70
2021/11/21 12:18:05;;;;;;;8.90;5.07;;;6.20;59.30;;;;;;5069150;28;20469;-69
2021/11/21 12:20:43;;;;;;;10.30;5.13;;;6.20;55.70;;;;;;5090950;28;20798;-69
2021/11/21 12:23:10;;;;;;;7.70;5.53;;;6.30;1.00;;;;;;5074670;28;20873;-69
2021/11/21 12:25:37;;;;;;;7.10;5.13;;;6.40;1.00;;;;;;5070417;28;20533;-69
2021/11/21 12:28:06;;;;;;;4.13;3.73;;;6.50;1.00;;;;;;5076872;28;20465;-69
2021/11/21 12:30:36;;;;;;;10.23;5.67;;;6.60;1.00;;;;;;5070181;28;21770;-69
2021/11/21 12:33:05;;;;;;;10.30;4.87;;;6.60;1.00;;;;;;5073407;28;20495;-69
2021/11/21 12:35:34;;;;;;;5.17;4.40;;;6.40;99.90;;;;;;5090484;28;20455;-69
2021/11/21 12:38:03;;;;;;;7.40;5.23;;;6.50;1.00;;;;;;5073058;28;20640;-69
2021/11/21 12:40:35;;;;;;;5.70;4.13;;;6.50;1.00;;;;;;5082100;28;20476;-69
2021/11/21 12:43:07;;;;;;;9.87;4.50;;;6.50;1.00;;;;;;5087608;28;20445;-70
2021/11/21 12:45:37;;;;;;;6.00;4.60;;;6.30;1.00;;;;;;5079356;28;20521;-70
2021/11/21 12:48:05;;;;;;;6.60;4.53;;;6.50;99.90;;;;;;5080520;28;20451;-69
2021/11/21 12:50:34;;;;;;;9.27;5.70;;;6.50;1.00;;;;;;5071982;28;20533;-70
2021/11/21 12:53:05;;;;;;;6.73;4.47;;;6.50;1.00;;;;;;5078867;28;20676;-70
2021/11/21 12:55:34;;;;;;;5.30;3.60;;;6.50;1.00;;;;;;5083001;28;20765;-71
2021/11/21 12:58:02;;;;;;;7.57;4.10;;;6.40;99.90;;;;;;5073012;28;20583;-70
2021/11/21 13:00:33;;;;;;;6.47;3.60;;;6.50;99.90;;;;;;5079405;28;20449;-73
2021/11/21 13:03:11;;;;;;;6.33;4.13;;;6.40;40.30;;;;;;5072707;28;20860;-72
2021/11/21 13:05:40;;;;;;;6.30;3.83;;;6.40;99.90;;;;;;5073647;28;20488;-72